TitleAuthorLatest activityViews
ThreadJH616October 17, 2017 8:55:03 AM 880 0 4
ThreadkineticmOctober 17, 2017 8:53:46 AM 2420 0 13
ThreadRadeshwarOctober 17, 2017 8:39:51 AM 470 0 1
ThreadxxxxxxxxxxxxxOctober 17, 2017 8:32:20 AM 730 0 1
Threadjames_barOctober 17, 2017 8:29:13 AM 120 0 0
ThreadKiran.VyasOctober 17, 2017 8:23:46 AM 2590 0 9
ThreadDenis_KogalyonokOctober 17, 2017 8:02:02 AM 490 0 1
ThreadhamatoOctober 17, 2017 7:43:57 AM 720 0 1
ThreadMihail_PotapovOctober 17, 2017 7:23:22 AM 830 0 3
Threadav9595October 17, 2017 7:21:15 AM 1220 0 2
Threaddavidb1234October 17, 2017 7:16:04 AM 2010 0 7
ThreadDan_reynoldsOctober 17, 2017 7:09:36 AM 1680 0 4
Threaddeclan.odonoghueOctober 17, 2017 6:56:55 AM 1250 0 4
ThreadNickC9POctober 17, 2017 6:49:12 AM 1180 0 3
ThreadGagliotoOctober 17, 2017 6:30:45 AM 721 0 2
ThreadErezOctober 17, 2017 6:25:34 AM 410 0 0
ThreadPoornimaOctober 17, 2017 6:16:04 AM 520 0 0
ThreadHaukeMOctober 17, 2017 6:14:49 AM 531 0 2
ThreadpharthiphanOctober 17, 2017 6:03:35 AM 783 1 2
ThreadunounotresOctober 17, 2017 5:07:15 AM 2220 0 8